Time;durP1;ratioP1;P1;durP2;ratioP2;P2;SDS_P1;SDS_P2;PMS_P1;PMS_P2;Temp;Humidity;BMP_temperature;BMP_pressure;BME280_temperature;BME280_humidity;BME280_pressure;Samples;Min_cycle;Max_cycle;Signal;HPM_P1;HPM_P2
2021/03/29 00:02:18;;;;;;;6.78;1.23;;;27.60;87.90;;;;;;5106417;28;20397;-81
2021/03/29 00:04:45;;;;;;;5.00;1.13;;;27.50;79.00;;;;;;5090899;28;20470;-79
2021/03/29 00:07:13;;;;;;;4.65;1.02;;;27.10;83.80;;;;;;5092492;28;20433;-82
2021/03/29 00:09:41;;;;;;;5.88;1.50;;;27.80;85.20;;;;;;5094958;28;20425;-82
2021/03/29 00:12:11;;;;;;;6.05;1.13;;;27.40;78.40;;;;;;5110248;28;20418;-81
2021/03/29 00:14:40;;;;;;;5.75;1.50;;;26.60;79.10;;;;;;5077467;28;21055;-82
2021/03/29 00:17:08;;;;;;;4.47;1.20;;;25.90;82.50;;;;;;5109943;28;20474;-82
2021/03/29 00:19:38;;;;;;;5.70;1.00;;;26.00;84.20;;;;;;5110876;28;20366;-82
2021/03/29 00:22:06;;;;;;;5.68;1.00;;;26.00;82.80;;;;;;5108425;28;20394;-82
2021/03/29 00:24:34;;;;;;;7.30;1.35;;;26.60;85.20;;;;;;5092221;28;20378;-82
2021/03/29 00:27:03;;;;;;;4.50;1.20;;;27.50;90.70;;;;;;5110514;28;20435;-81
2021/03/29 00:29:30;;;;;;;6.05;1.23;;;27.10;81.30;;;;;;5105887;28;20386;-81
2021/03/29 00:35:57;;;;;;;5.65;1.23;;;25.70;91.80;;;;;;5091346;28;20497;-83
2021/03/29 00:38:25;;;;;;;5.07;1.10;;;25.20;86.40;;;;;;5071469;28;20408;-81
2021/03/29 00:41:00;;;;;;;5.43;1.13;;;24.60;91.60;;;;;;5102910;28;20399;-81
2021/03/29 00:46:42;;;;;;;3.20;0.90;;;25.50;90.40;;;;;;5105358;28;20425;-81
2021/03/29 00:49:10;;;;;;;6.65;1.50;;;26.90;86.20;;;;;;5071491;28;20373;-80
2021/03/29 00:51:39;;;;;;;4.68;0.95;;;27.60;81.30;;;;;;5096011;28;20379;-81
2021/03/29 00:54:09;;;;;;;3.88;0.90;;;26.90;77.60;;;;;;5090415;28;20909;-80
2021/03/29 00:56:37;;;;;;;5.03;0.90;;;26.20;83.00;;;;;;5087414;28;20396;-80
2021/03/29 00:59:06;;;;;;;3.63;1.13;;;25.50;90.00;;;;;;5075285;28;20396;-80
2021/03/29 01:01:40;;;;;;;3.80;0.82;;;24.80;87.20;;;;;;5079385;28;20394;-80
2021/03/29 01:04:09;;;;;;;3.80;0.95;;;24.50;87.60;;;;;;5079474;28;20417;-80
2021/03/29 01:06:42;;;;;;;2.30;0.90;;;25.10;88.30;;;;;;5082912;28;20391;-80
2021/03/29 01:09:20;;;;;;;3.40;1.20;;;25.90;83.80;;;;;;5081729;28;20519;-81
2021/03/29 01:11:57;;;;;;;3.90;0.90;;;26.50;81.80;;;;;;5082466;28;20911;-82
2021/03/29 01:14:38;;;;;;;5.15;1.00;;;25.40;81.70;;;;;;5109822;28;20367;-82
2021/03/29 01:17:30;;;;;;;5.68;0.90;;;24.60;84.30;;;;;;5091095;28;20437;-82
2021/03/29 01:20:03;;;;;;;2.92;0.80;;;24.00;90.00;;;;;;5109403;28;20371;-82
2021/03/29 01:22:43;;;;;;;1.58;0.80;;;23.40;91.70;;;;;;5109266;28;20490;-82
2021/03/29 01:25:19;;;;;;;4.63;0.82;;;22.90;92.20;;;;;;5090952;28;20363;-82
2021/03/29 01:28:03;;;;;;;5.05;1.17;;;22.40;93.60;;;;;;5098568;28;20380;-81
2021/03/29 01:30:35;;;;;;;5.38;1.45;;;22.10;96.20;;;;;;5076508;28;20466;-82
2021/03/29 01:33:04;;;;;;;4.93;1.02;;;22.20;92.20;;;;;;5100354;28;20414;-82
2021/03/29 01:35:40;;;;;;;2.43;0.70;;;22.50;94.50;;;;;;5105409;28;20401;-82
2021/03/29 01:38:08;;;;;;;5.85;1.25;;;22.60;90.20;;;;;;5066184;28;20396;-85
2021/03/29 01:40:37;;;;;;;4.63;0.90;;;22.60;90.00;;;;;;5091906;28;20485;-80
2021/03/29 01:43:06;;;;;;;5.13;0.90;;;22.90;94.60;;;;;;5093144;28;20396;-81
2021/03/29 01:45:34;;;;;;;3.38;0.60;;;22.90;90.20;;;;;;5083532;28;20389;-81
2021/03/29 01:48:06;;;;;;;4.32;1.02;;;23.00;91.10;;;;;;5070667;28;20437;-81
2021/03/29 01:50:35;;;;;;;3.60;0.63;;;23.20;88.40;;;;;;5091806;28;20383;-80
2021/03/29 01:53:05;;;;;;;2.08;0.70;;;23.40;85.40;;;;;;5076243;28;20376;-79
2021/03/29 01:55:33;;;;;;;3.22;0.60;;;23.50;80.10;;;;;;5097704;28;20375;-79
2021/03/29 01:58:01;;;;;;;2.78;0.77;;;23.50;75.50;;;;;;5093086;28;20394;-78
2021/03/29 02:00:32;;;;;;;2.88;0.50;;;23.30;77.70;;;;;;5110643;28;20416;-78
2021/03/29 02:03:09;;;;;;;1.80;0.60;;;23.20;78.30;;;;;;5091874;28;20374;-80
2021/03/29 02:05:37;;;;;;;2.25;0.52;;;23.20;74.80;;;;;;5108290;28;20456;-78
2021/03/29 02:08:05;;;;;;;2.75;0.70;;;22.90;78.20;;;;;;5099345;28;20428;-79
2021/03/29 02:10:37;;;;;;;2.80;0.70;;;22.60;81.60;;;;;;5113423;28;20398;-80
2021/03/29 02:13:12;;;;;;;3.00;0.80;;;22.50;84.70;;;;;;5110517;28;20726;-79
2021/03/29 02:15:40;;;;;;;1.40;0.50;;;22.60;88.00;;;;;;5074950;28;20462;-80
2021/03/29 02:18:12;;;;;;;3.35;0.60;;;22.70;77.20;;;;;;5092366;28;20392;-80
2021/03/29 02:20:40;;;;;;;2.17;0.65;;;22.80;81.80;;;;;;5074746;28;20898;-79
2021/03/29 02:23:15;;;;;;;2.67;0.60;;;22.80;83.20;;;;;;5093369;28;20785;-80
2021/03/29 02:25:45;;;;;;;3.15;0.70;;;22.90;84.60;;;;;;5110635;28;20888;-80
2021/03/29 02:28:12;;;;;;;3.72;0.70;;;23.00;81.20;;;;;;5094113;28;20431;-80
2021/03/29 02:31:00;;;;;;;2.88;0.68;;;23.20;79.70;;;;;;5100288;28;20388;-80
2021/03/29 02:33:28;;;;;;;4.70;0.90;;;23.30;75.20;;;;;;5093948;28;20389;-81
2021/03/29 02:35:56;;;;;;;2.53;0.63;;;23.10;73.60;;;;;;5081729;28;20772;-80
2021/03/29 02:38:23;;;;;;;2.47;0.70;;;23.00;77.40;;;;;;5074127;28;20372;-80
2021/03/29 02:40:54;;;;;;;1.98;0.70;;;23.00;79.50;;;;;;5070833;28;20413;-80
2021/03/29 02:43:21;;;;;;;3.00;0.80;;;23.20;78.60;;;;;;5076126;28;20385;-81
2021/03/29 02:46:02;;;;;;;3.60;0.88;;;23.30;80.30;;;;;;5070439;28;20800;-82
2021/03/29 02:48:46;;;;;;;;;;;;;;;;;;;;;
2021/03/29 02:51:15;;;;;;;2.90;0.80;;;23.70;79.80;;;;;;5089407;28;20398;-82
2021/03/29 02:54:00;;;;;;;2.58;0.60;;;23.90;79.20;;;;;;5087822;28;20388;-83
2021/03/29 02:56:32;;;;;;;2.55;0.60;;;23.80;72.50;;;;;;5083580;28;20834;-82
2021/03/29 02:59:07;;;;;;;3.55;0.77;;;23.70;73.50;;;;;;5100090;28;20914;-82
2021/03/29 03:01:39;;;;;;;5.10;1.00;;;23.70;71.50;;;;;;5091399;28;20384;-82
2021/03/29 03:04:13;;;;;;;2.67;0.60;;;23.50;73.40;;;;;;5089518;28;20460;-81
2021/03/29 03:06:40;;;;;;;4.97;0.80;;;23.50;75.10;;;;;;5091069;28;20495;-81
2021/03/29 03:09:09;;;;;;;3.10;0.80;;;23.50;76.80;;;;;;5091924;28;20371;-82
2021/03/29 03:11:37;;;;;;;2.67;0.70;;;23.60;75.30;;;;;;5107501;28;20974;-82
2021/03/29 03:14:06;;;;;;;3.90;0.70;;;23.80;75.80;;;;;;5107743;28;20747;-82
2021/03/29 03:16:37;;;;;;;2.65;0.50;;;23.80;74.90;;;;;;5091016;28;20400;-81
2021/03/29 03:19:08;;;;;;;3.17;0.73;;;23.90;73.40;;;;;;5074211;28;20386;-81
2021/03/29 03:21:36;;;;;;;4.40;0.75;;;23.90;73.10;;;;;;5077108;28;20394;-82
2021/03/29 03:24:04;;;;;;;2.85;0.57;;;24.00;74.20;;;;;;5079985;28;20447;-82
2021/03/29 03:26:32;;;;;;;1.88;0.80;;;23.90;71.30;;;;;;5070007;28;20393;-79
2021/03/29 03:29:00;;;;;;;3.60;0.70;;;24.00;72.80;;;;;;5089270;28;20385;-81
2021/03/29 03:31:27;;;;;;;2.33;0.70;;;23.90;71.40;;;;;;5090052;28;20380;-82
2021/03/29 03:33:54;;;;;;;6.68;0.73;;;23.90;72.70;;;;;;5091486;28;20394;-90
2021/03/29 03:36:25;;;;;;;2.50;0.60;;;24.00;72.00;;;;;;5091550;28;20400;-83
2021/03/29 03:38:53;;;;;;;2.90;0.68;;;23.90;69.90;;;;;;5107936;28;20381;-82
2021/03/29 03:41:34;;;;;;;3.95;0.70;;;23.90;71.80;;;;;;5098444;28;20483;-83
2021/03/29 03:44:04;;;;;;;4.63;0.80;;;24.00;70.00;;;;;;5077330;28;20887;-83
2021/03/29 03:46:40;;;;;;;3.10;0.70;;;24.00;73.30;;;;;;5072056;28;20417;-82
2021/03/29 03:49:26;;;;;;;4.88;1.20;;;24.10;73.00;;;;;;5091070;28;20464;-84
2021/03/29 03:51:54;;;;;;;2.63;0.82;;;24.20;82.20;;;;;;5081715;28;20915;-84
2021/03/29 03:54:25;;;;;;;4.78;1.10;;;24.10;85.20;;;;;;5111724;28;20907;-85
2021/03/29 03:56:54;;;;;;;3.75;1.08;;;23.70;89.50;;;;;;5092687;28;20399;-84
2021/03/29 03:59:24;;;;;;;7.47;1.23;;;23.20;92.00;;;;;;5111227;28;20497;-84
2021/03/29 04:02:06;;;;;;;6.97;1.52;;;23.10;93.50;;;;;;5092575;28;20386;-84
2021/03/29 04:04:34;;;;;;;5.43;0.90;;;22.90;94.30;;;;;;5092893;28;20431;-83
2021/03/29 04:07:02;;;;;;;4.65;1.13;;;22.90;96.70;;;;;;5093025;28;20850;-84
2021/03/29 04:12:07;;;;;;;4.75;0.93;;;23.20;94.90;;;;;;5111518;28;20378;-85
2021/03/29 04:14:34;;;;;;;7.50;1.50;;;23.30;95.60;;;;;;5111764;28;20367;-84
2021/03/29 04:17:02;;;;;;;6.67;1.30;;;23.30;96.10;;;;;;5109999;28;20395;-85
2021/03/29 04:19:32;;;;;;;7.28;1.40;;;23.20;95.50;;;;;;5110511;28;20371;-84
2021/03/29 04:21:59;;;;;;;6.15;1.40;;;22.90;96.60;;;;;;5093559;28;20467;-85
2021/03/29 04:24:26;;;;;;;4.10;1.30;;;22.60;97.70;;;;;;5092352;28;20375;-84
2021/03/29 04:26:53;;;;;;;7.27;1.17;;;22.40;98.00;;;;;;5081541;28;20387;-85
2021/03/29 04:29:20;;;;;;;4.27;1.27;;;22.20;99.10;;;;;;5084197;28;20822;-83
2021/03/29 04:31:48;;;;;;;7.15;1.08;;;22.00;99.90;;;;;;5110500;28;20390;-84
2021/03/29 04:34:14;;;;;;;7.28;1.42;;;22.00;99.90;;;;;;5110266;28;20366;-84
2021/03/29 04:36:41;;;;;;;4.38;0.93;;;21.70;99.90;;;;;;5092360;28;20919;-84
2021/03/29 04:39:08;;;;;;;7.95;1.20;;;21.60;99.90;;;;;;5108821;28;20741;-83
2021/03/29 04:41:36;;;;;;;4.22;0.93;;;21.50;99.90;;;;;;5091964;28;20857;-84
2021/03/29 04:44:03;;;;;;;9.88;1.70;;;21.70;99.90;;;;;;5092016;28;20435;-85
2021/03/29 04:46:30;;;;;;;5.90;1.20;;;21.90;99.90;;;;;;5091910;28;20493;-84
2021/03/29 04:48:58;;;;;;;6.28;1.00;;;22.00;99.90;;;;;;5109956;28;20465;-84
2021/03/29 04:51:27;;;;;;;4.80;1.20;;;22.20;99.90;;;;;;5077683;28;20490;-84
2021/03/29 04:53:54;;;;;;;5.53;1.13;;;22.20;99.90;;;;;;5091251;28;20572;-83
2021/03/29 04:56:21;;;;;;;7.05;1.20;;;22.10;99.90;;;;;;5109201;28;20409;-84
2021/03/29 04:58:48;;;;;;;5.60;1.08;;;22.10;99.90;;;;;;5091218;28;20386;-84
2021/03/29 05:01:14;;;;;;;5.53;1.20;;;22.20;99.90;;;;;;5091246;28;20745;-83
2021/03/29 05:03:41;;;;;;;4.72;1.30;;;22.20;99.90;;;;;;5109556;28;20363;-84
2021/03/29 05:06:08;;;;;;;8.95;1.30;;;22.30;99.90;;;;;;5091767;28;20465;-83
2021/03/29 05:08:35;;;;;;;4.78;0.90;;;22.40;99.90;;;;;;5091741;28;20378;-84
2021/03/29 05:11:02;;;;;;;6.60;1.00;;;22.30;99.90;;;;;;5091447;28;20406;-83
2021/03/29 05:13:32;;;;;;;5.38;1.10;;;22.20;99.90;;;;;;5103551;28;20411;-84
2021/03/29 05:15:59;;;;;;;5.70;0.98;;;21.90;99.90;;;;;;5073296;28;20388;-84
2021/03/29 05:18:28;;;;;;;4.43;1.00;;;21.40;99.90;;;;;;5089303;28;20395;-84
2021/03/29 05:20:55;;;;;;;10.50;1.25;;;21.20;99.90;;;;;;5070807;28;20384;-83
2021/03/29 05:23:23;;;;;;;2.75;0.90;;;20.90;99.90;;;;;;5105457;28;20394;-84
2021/03/29 05:25:50;;;;;;;9.13;1.10;;;20.80;99.90;;;;;;5107729;28;20394;-83
2021/03/29 05:28:18;;;;;;;5.70;1.20;;;20.60;99.90;;;;;;5090995;28;20383;-84
2021/03/29 05:30:44;;;;;;;4.13;1.13;;;20.60;99.90;;;;;;5090915;28;20379;-84
2021/03/29 05:33:11;;;;;;;4.78;0.98;;;20.70;99.90;;;;;;5090698;28;20957;-83
2021/03/29 05:35:38;;;;;;;6.53;1.08;;;20.80;99.90;;;;;;5090452;28;20413;-83
2021/03/29 05:38:06;;;;;;;6.43;1.05;;;20.80;99.90;;;;;;5091352;28;20383;-83
2021/03/29 05:40:33;;;;;;;4.68;1.08;;;20.80;99.90;;;;;;5107084;28;20405;-83
2021/03/29 05:43:00;;;;;;;5.78;0.93;;;20.90;99.90;;;;;;5070719;28;20388;-84
2021/03/29 05:45:38;;;;;;;5.22;1.27;;;21.00;99.90;;;;;;5071369;28;20496;-83
2021/03/29 05:48:09;;;;;;;6.53;1.00;;;21.10;99.90;;;;;;5071215;28;20467;-84
2021/03/29 05:50:36;;;;;;;4.55;1.00;;;21.20;99.90;;;;;;5070233;28;20396;-84
2021/03/29 05:53:03;;;;;;;3.67;0.90;;;21.20;99.90;;;;;;5069419;28;20441;-84
2021/03/29 05:55:35;;;;;;;5.68;1.00;;;21.20;99.90;;;;;;5087927;28;20356;-85
2021/03/29 06:00:37;;;;;;;6.57;1.30;;;21.10;99.90;;;;;;5089213;28;20376;-84
2021/03/29 06:03:29;;;;;;;3.42;1.00;;;21.00;99.90;;;;;;5089022;28;20401;-84
2021/03/29 06:06:17;;;;;;;4.40;0.70;;;21.00;99.90;;;;;;5089215;28;20380;-84
2021/03/29 06:08:53;;;;;;;3.47;0.95;;;20.90;99.90;;;;;;5089244;28;20398;-85
2021/03/29 06:11:40;;;;;;;3.92;1.10;;;20.90;99.90;;;;;;5089183;28;20852;-84
2021/03/29 06:14:21;;;;;;;4.32;1.00;;;20.90;99.90;;;;;;5070183;28;20401;-84
2021/03/29 06:17:02;;;;;;;5.22;0.90;;;20.80;99.90;;;;;;5070277;28;20408;-83
2021/03/29 06:19:44;;;;;;;7.10;1.20;;;20.80;99.90;;;;;;5086577;28;20420;-85
2021/03/29 06:22:13;;;;;;;5.75;0.93;;;20.70;99.90;;;;;;5086902;28;20723;-84
2021/03/29 06:25:06;;;;;;;7.45;1.15;;;20.70;99.90;;;;;;5088745;28;20373;-83
2021/03/29 06:27:44;;;;;;;4.93;1.30;;;20.70;99.90;;;;;;5102164;28;20472;-83
2021/03/29 06:30:32;;;;;;;6.97;1.25;;;20.70;99.90;;;;;;5108225;28;20466;-84
2021/03/29 06:33:18;;;;;;;3.22;0.80;;;20.70;99.90;;;;;;5078034;28;20472;-84
2021/03/29 06:35:52;;;;;;;3.88;0.82;;;20.70;99.90;;;;;;5092002;28;20399;-87
2021/03/29 06:38:20;;;;;;;4.33;0.73;;;20.70;99.90;;;;;;5108141;28;20398;-83
2021/03/29 06:40:59;;;;;;;3.75;0.82;;;20.60;99.90;;;;;;5079124;28;20404;-85
2021/03/29 06:43:30;;;;;;;3.80;0.60;;;20.50;99.90;;;;;;5107576;28;20885;-86
2021/03/29 06:46:24;;;;;;;7.07;1.20;;;20.40;99.90;;;;;;5087562;28;20401;-85
2021/03/29 06:48:54;;;;;;;4.93;0.97;;;20.40;99.90;;;;;;5092421;28;20385;-86
2021/03/29 06:51:26;;;;;;;2.38;0.50;;;20.30;99.90;;;;;;5078883;28;20456;-83
2021/03/29 06:54:01;;;;;;;3.80;0.77;;;20.20;99.90;;;;;;5074591;28;20451;-84
2021/03/29 06:56:44;;;;;;;3.80;0.97;;;20.20;99.90;;;;;;5090216;28;20410;-84
2021/03/29 06:59:17;;;;;;;4.03;0.82;;;20.20;99.90;;;;;;5091607;28;20470;-83
2021/03/29 07:01:57;;;;;;;5.60;0.98;;;20.10;99.90;;;;;;5086625;28;20396;-83
2021/03/29 07:04:27;;;;;;;4.25;0.88;;;20.10;99.90;;;;;;5106870;28;20394;-83
2021/03/29 07:06:56;;;;;;;5.15;0.90;;;20.00;99.90;;;;;;5089207;28;20758;-83
2021/03/29 07:09:24;;;;;;;3.85;0.70;;;20.00;99.90;;;;;;5101040;28;20388;-85
2021/03/29 07:11:51;;;;;;;2.53;0.70;;;19.90;99.90;;;;;;5088206;28;20386;-85
2021/03/29 07:14:22;;;;;;;4.50;0.85;;;19.90;99.90;;;;;;5109784;28;20426;-84
2021/03/29 07:16:49;;;;;;;2.47;0.70;;;19.80;99.90;;;;;;5092963;28;20406;-88
2021/03/29 07:19:16;;;;;;;2.90;0.80;;;19.80;99.90;;;;;;5083421;28;20447;-85
2021/03/29 07:21:48;;;;;;;3.50;0.90;;;19.80;99.90;;;;;;5096737;28;20390;-86
2021/03/29 07:24:15;;;;;;;3.88;0.70;;;19.80;99.90;;;;;;5091569;28;20398;-85
2021/03/29 07:26:59;;;;;;;4.22;0.77;;;19.70;99.90;;;;;;5109595;28;20477;-87
2021/03/29 07:29:35;;;;;;;3.95;0.90;;;19.60;99.90;;;;;;5092902;28;20397;-86
2021/03/29 07:32:05;;;;;;;5.20;0.70;;;19.60;99.90;;;;;;5092474;28;20897;-85
2021/03/29 07:34:48;;;;;;;3.88;1.08;;;19.50;99.90;;;;;;5112186;28;20860;-84
2021/03/29 07:38:04;;;;;;;3.47;0.75;;;19.50;99.90;;;;;;5091530;28;20455;-85
2021/03/29 07:40:34;;;;;;;4.90;1.00;;;19.40;99.90;;;;;;5086543;28;20408;-86
2021/03/29 07:43:16;;;;;;;4.85;0.80;;;19.30;99.90;;;;;;5087907;28;20562;-85
2021/03/29 07:46:03;;;;;;;3.53;0.77;;;19.30;99.90;;;;;;5073017;28;20365;-85
2021/03/29 07:48:40;;;;;;;3.55;0.85;;;19.30;99.90;;;;;;5072523;28;20487;-85
2021/03/29 07:51:15;;;;;;;2.67;0.90;;;19.20;99.90;;;;;;5085757;28;20908;-86
2021/03/29 07:53:50;;;;;;;4.97;0.95;;;19.20;99.90;;;;;;5093114;28;20949;-84
2021/03/29 07:56:37;;;;;;;1.87;0.70;;;19.10;99.90;;;;;;5112938;28;20398;-86
2021/03/29 07:59:07;;;;;;;3.05;0.70;;;19.00;99.90;;;;;;5100671;27;20392;-83
2021/03/29 08:02:05;;;;;;;4.80;1.38;;;19.00;99.90;;;;;;5082262;28;20392;-84
2021/03/29 08:05:05;;;;;;;3.85;0.90;;;19.00;99.90;;;;;;5094629;28;20506;-84
2021/03/29 08:07:40;;;;;;;2.47;0.70;;;19.00;99.90;;;;;;5093150;28;20405;-84
2021/03/29 08:10:10;;;;;;;6.10;1.25;;;18.90;99.90;;;;;;5097648;28;20862;-85
2021/03/29 08:12:37;;;;;;;4.17;0.80;;;18.90;99.90;;;;;;5096896;28;20489;-89
2021/03/29 08:15:04;;;;;;;4.60;0.93;;;18.80;99.90;;;;;;5089507;28;20407;-86
2021/03/29 08:17:44;;;;;;;4.05;0.93;;;18.70;99.90;;;;;;5106953;28;20487;-87
2021/03/29 08:20:21;;;;;;;3.72;0.75;;;18.80;99.90;;;;;;5088284;28;20398;-86
2021/03/29 08:23:26;;;;;;;3.67;0.90;;;18.60;99.90;;;;;;5078406;28;20401;-84
2021/03/29 08:26:22;;;;;;;2.65;0.73;;;18.60;99.90;;;;;;5106489;28;20957;-83
2021/03/29 08:29:10;;;;;;;4.07;0.83;;;18.60;99.90;;;;;;5083706;28;20447;-84
2021/03/29 08:32:04;;;;;;;2.83;1.02;;;18.50;99.90;;;;;;5101223;28;20767;-84
2021/03/29 08:34:36;;;;;;;2.70;0.90;;;18.50;99.90;;;;;;5086739;28;20883;-84
2021/03/29 08:37:06;;;;;;;5.00;0.80;;;18.50;99.90;;;;;;5092200;28;20401;-84
2021/03/29 08:39:38;;;;;;;4.18;0.88;;;18.40;99.90;;;;;;5072204;28;20707;-85
2021/03/29 08:42:09;;;;;;;3.47;0.90;;;18.40;99.90;;;;;;5098379;28;20400;-85
2021/03/29 08:44:43;;;;;;;4.53;0.90;;;18.40;99.90;;;;;;5087788;28;20392;-84
2021/03/29 08:47:20;;;;;;;3.25;0.90;;;18.30;99.90;;;;;;5087850;28;20941;-84
2021/03/29 08:49:52;;;;;;;2.88;0.90;;;18.20;99.90;;;;;;5088419;28;20421;-83
2021/03/29 08:52:20;;;;;;;3.05;0.75;;;18.20;99.90;;;;;;5094249;28;20433;-83
2021/03/29 08:54:58;;;;;;;2.47;0.77;;;18.20;99.90;;;;;;5102810;28;21220;-84
2021/03/29 08:57:31;;;;;;;3.50;0.90;;;18.10;99.90;;;;;;5086448;28;20438;-84
2021/03/29 09:00:12;;;;;;;3.17;0.90;;;18.10;99.90;;;;;;5087398;28;20387;-86
2021/03/29 09:02:40;;;;;;;3.70;1.00;;;18.10;99.90;;;;;;5085043;28;20477;-84
2021/03/29 09:05:10;;;;;;;4.40;0.77;;;18.10;99.90;;;;;;5098245;28;20402;-84
2021/03/29 09:07:43;;;;;;;2.83;0.60;;;18.20;99.90;;;;;;5093630;28;20422;-83
2021/03/29 09:10:25;;;;;;;4.95;1.10;;;18.10;99.90;;;;;;5085288;28;20429;-84
2021/03/29 09:12:56;;;;;;;1.48;0.63;;;18.20;99.90;;;;;;5102390;28;20390;-84
2021/03/29 09:15:27;;;;;;;6.03;1.27;;;18.10;99.90;;;;;;5087750;28;20401;-84
2021/03/29 09:18:02;;;;;;;3.03;0.70;;;18.10;99.90;;;;;;5084019;28;20803;-84
2021/03/29 09:20:33;;;;;;;4.35;0.90;;;18.10;99.90;;;;;;5078792;28;20386;-84
2021/03/29 09:23:01;;;;;;;4.82;0.90;;;18.10;99.90;;;;;;5104542;28;20402;-84
2021/03/29 09:25:36;;;;;;;2.60;0.90;;;18.00;99.90;;;;;;5105612;28;20885;-84
2021/03/29 09:28:12;;;;;;;6.45;1.08;;;18.00;99.90;;;;;;5102801;28;20743;-84
2021/03/29 09:30:40;;;;;;;2.80;0.80;;;18.00;99.90;;;;;;5083883;28;20384;-83
2021/03/29 09:33:09;;;;;;;1.58;0.70;;;18.00;99.90;;;;;;5102100;28;21497;-84
2021/03/29 09:35:37;;;;;;;4.38;0.80;;;18.00;99.90;;;;;;5101370;28;20429;-83
2021/03/29 09:38:04;;;;;;;2.50;0.90;;;18.10;99.90;;;;;;5102081;28;20420;-83
2021/03/29 09:40:37;;;;;;;4.78;1.10;;;18.10;99.90;;;;;;5078034;28;20509;-82
2021/03/29 09:43:21;;;;;;;4.80;1.08;;;18.10;99.90;;;;;;5093901;28;20811;-83
2021/03/29 09:45:48;;;;;;;2.67;0.80;;;18.10;99.90;;;;;;5069082;28;20903;-83
2021/03/29 09:48:15;;;;;;;3.95;1.08;;;18.00;99.90;;;;;;5077016;28;20404;-84
2021/03/29 09:50:45;;;;;;;2.22;0.68;;;18.00;99.90;;;;;;5092387;28;20418;-84
2021/03/29 09:53:24;;;;;;;3.90;1.03;;;17.90;99.90;;;;;;5083661;28;20408;-84
2021/03/29 09:56:07;;;;;;;3.57;0.80;;;17.90;99.90;;;;;;5080921;28;20433;-84
2021/03/29 09:58:43;;;;;;;4.10;1.25;;;17.90;99.90;;;;;;5098876;28;20408;-83
2021/03/29 10:01:21;;;;;;;3.65;1.00;;;17.90;99.90;;;;;;5084423;28;20461;-84
2021/03/29 10:04:00;;;;;;;3.63;0.80;;;17.90;99.90;;;;;;5084665;28;20384;-84
2021/03/29 10:06:31;;;;;;;3.45;0.90;;;17.90;99.90;;;;;;5069399;28;20415;-84
2021/03/29 10:09:08;;;;;;;1.75;0.73;;;17.80;99.90;;;;;;5080797;28;20391;-84
2021/03/29 10:11:47;;;;;;;2.73;0.83;;;17.80;99.90;;;;;;5075090;28;20404;-83
2021/03/29 10:14:18;;;;;;;3.88;0.82;;;17.70;99.90;;;;;;5086141;28;20425;-83
2021/03/29 10:16:50;;;;;;;7.20;1.40;;;17.70;99.90;;;;;;5080158;28;20764;-84
2021/03/29 10:19:20;;;;;;;5.30;0.85;;;17.80;99.90;;;;;;5071127;28;20472;-83
2021/03/29 10:22:04;;;;;;;5.20;1.23;;;17.80;99.90;;;;;;5081404;28;20583;-83
2021/03/29 10:24:38;;;;;;;4.32;0.90;;;17.80;99.90;;;;;;5071716;28;20453;-84
2021/03/29 10:27:08;;;;;;;3.38;1.00;;;17.80;99.90;;;;;;5096193;28;20446;-83
2021/03/29 10:29:39;;;;;;;1.92;0.60;;;17.80;99.90;;;;;;5082248;28;20392;-82
2021/03/29 10:32:20;;;;;;;5.55;0.95;;;17.70;99.90;;;;;;5086374;28;20376;-83
2021/03/29 10:34:50;;;;;;;6.10;1.00;;;17.80;99.90;;;;;;5085155;28;20924;-83
2021/03/29 10:37:25;;;;;;;4.13;0.88;;;17.80;99.90;;;;;;5088207;28;20411;-83
2021/03/29 10:39:54;;;;;;;2.38;0.90;;;17.80;99.90;;;;;;5079944;28;20408;-83
2021/03/29 10:42:24;;;;;;;3.05;0.82;;;17.70;99.90;;;;;;5081733;28;20431;-83
2021/03/29 10:44:52;;;;;;;3.40;0.90;;;17.60;99.90;;;;;;5087677;28;20384;-83
2021/03/29 10:47:20;;;;;;;3.00;0.80;;;17.60;99.90;;;;;;5083834;28;20399;-83
2021/03/29 10:49:46;;;;;;;3.67;0.70;;;17.50;99.90;;;;;;5086744;28;20906;-83
2021/03/29 10:52:16;;;;;;;3.45;0.95;;;17.50;99.90;;;;;;5085423;28;21183;-83
2021/03/29 10:54:43;;;;;;;5.80;1.00;;;17.50;99.90;;;;;;5098177;28;20400;-83
2021/03/29 10:57:10;;;;;;;3.08;0.80;;;17.50;99.90;;;;;;5080579;28;20557;-83
2021/03/29 10:59:38;;;;;;;4.07;1.20;;;17.40;99.90;;;;;;5087050;28;20974;-83
2021/03/29 11:02:05;;;;;;;4.30;0.93;;;17.50;99.90;;;;;;5089497;28;20491;-84
2021/03/29 11:04:32;;;;;;;4.95;1.15;;;17.40;99.90;;;;;;5099082;28;20388;-84
2021/03/29 11:06:59;;;;;;;2.83;1.00;;;17.50;99.90;;;;;;5090214;28;20403;-84
2021/03/29 11:09:26;;;;;;;4.33;0.90;;;17.60;99.90;;;;;;5103259;27;20465;-84
2021/03/29 11:11:54;;;;;;;4.53;0.83;;;17.60;99.90;;;;;;5086688;28;20404;-83
2021/03/29 11:14:21;;;;;;;5.18;1.15;;;17.60;99.90;;;;;;5085917;28;20394;-83
2021/03/29 11:16:52;;;;;;;2.90;0.95;;;17.70;99.90;;;;;;5077367;28;20424;-84
2021/03/29 11:19:20;;;;;;;2.90;0.90;;;17.80;99.90;;;;;;5085081;28;20474;-83
2021/03/29 11:21:48;;;;;;;2.57;1.00;;;17.80;99.90;;;;;;5105760;28;20400;-84
2021/03/29 11:24:15;;;;;;;2.63;0.90;;;17.80;99.90;;;;;;5090104;28;20493;-84
2021/03/29 11:26:43;;;;;;;3.17;0.88;;;17.80;99.90;;;;;;5107225;28;20744;-84
2021/03/29 11:29:10;;;;;;;4.38;1.10;;;17.70;99.90;;;;;;5089492;28;20380;-84
2021/03/29 11:31:40;;;;;;;7.25;1.30;;;17.70;99.90;;;;;;5107242;28;20386;-84
2021/03/29 11:34:07;;;;;;;4.47;1.42;;;17.80;99.90;;;;;;5090212;28;20384;-84
2021/03/29 11:36:35;;;;;;;6.25;1.52;;;17.70;99.90;;;;;;5086350;28;20418;-83
2021/03/29 11:39:03;;;;;;;5.28;1.33;;;17.70;99.90;;;;;;5084486;28;20388;-84
2021/03/29 11:41:31;;;;;;;8.20;1.80;;;17.60;99.90;;;;;;5092143;28;20725;-83
2021/03/29 11:43:59;;;;;;;4.97;1.50;;;17.50;99.90;;;;;;5102810;28;20403;-85
2021/03/29 11:46:29;;;;;;;10.20;2.17;;;17.50;99.90;;;;;;5099929;28;20377;-84
2021/03/29 11:48:57;;;;;;;8.88;2.00;;;17.50;99.90;;;;;;5087083;28;20481;-84
2021/03/29 11:51:25;;;;;;;5.63;1.52;;;17.50;99.90;;;;;;5073301;28;20898;-83
2021/03/29 11:53:52;;;;;;;9.00;2.00;;;17.50;99.90;;;;;;5096836;28;20414;-84
2021/03/29 11:56:19;;;;;;;8.20;1.92;;;17.60;99.90;;;;;;5110248;28;20398;-85
2021/03/29 11:58:48;;;;;;;10.75;1.98;;;17.60;99.90;;;;;;5084193;28;20817;-84
2021/03/29 12:01:25;;;;;;;6.00;1.90;;;17.50;99.90;;;;;;5085429;28;20454;-84
2021/03/29 12:03:56;;;;;;;9.38;1.80;;;17.50;99.90;;;;;;5080173;28;20392;-85
2021/03/29 12:06:31;;;;;;;9.38;2.03;;;17.60;99.90;;;;;;5111334;28;20386;-84
2021/03/29 12:09:21;;;;;;;8.77;1.98;;;17.60;99.90;;;;;;5111620;28;20400;-85
2021/03/29 12:11:59;;;;;;;8.70;2.17;;;17.70;99.90;;;;;;5109724;28;20389;-83
2021/03/29 12:14:31;;;;;;;13.25;2.53;;;17.70;99.90;;;;;;5111347;28;20379;-84
2021/03/29 12:17:00;;;;;;;12.23;2.53;;;17.70;99.90;;;;;;5109509;28;20414;-86
2021/03/29 12:19:27;;;;;;;7.20;1.98;;;17.70;99.90;;;;;;5092495;28;20394;-84
2021/03/29 12:22:01;;;;;;;12.83;3.07;;;17.70;99.90;;;;;;5091532;28;20457;-84
2021/03/29 12:24:34;;;;;;;14.83;3.40;;;17.60;99.90;;;;;;5093012;28;20374;-85
2021/03/29 12:27:03;;;;;;;14.15;2.88;;;17.50;99.90;;;;;;5092411;28;20721;-85
2021/03/29 12:29:38;;;;;;;17.55;3.22;;;17.50;99.90;;;;;;5087170;28;20887;-85
2021/03/29 12:32:14;;;;;;;14.65;2.78;;;17.50;99.90;;;;;;5089157;28;20376;-84
2021/03/29 12:34:51;;;;;;;16.70;3.33;;;17.40;99.90;;;;;;5072685;28;20384;-84
2021/03/29 12:37:20;;;;;;;11.98;2.90;;;17.30;99.90;;;;;;5072655;28;20404;-85
2021/03/29 12:39:59;;;;;;;17.48;3.28;;;17.30;99.90;;;;;;5096288;28;20992;-85
2021/03/29 12:42:33;;;;;;;13.83;3.30;;;17.30;99.90;;;;;;5110680;28;20382;-84
2021/03/29 12:45:00;;;;;;;16.13;3.28;;;17.30;99.90;;;;;;5109342;28;20378;-85
2021/03/29 12:47:29;;;;;;;15.40;3.05;;;17.40;99.90;;;;;;5109082;28;20461;-85
2021/03/29 12:50:10;;;;;;;19.80;3.42;;;17.40;99.90;;;;;;5108348;28;20425;-85
2021/03/29 12:52:41;;;;;;;19.60;3.72;;;17.40;99.90;;;;;;5106606;28;20387;-86
2021/03/29 12:55:12;;;;;;;17.58;3.78;;;17.30;99.90;;;;;;5090975;28;20386;-85
2021/03/29 12:57:41;;;;;;;20.25;3.40;;;17.40;99.90;;;;;;5091939;28;20406;-86
2021/03/29 13:00:12;;;;;;;18.65;3.67;;;17.30;99.90;;;;;;5110013;28;20374;-85
2021/03/29 13:02:43;;;;;;;20.63;4.47;;;17.20;99.90;;;;;;5090565;28;20375;-85
2021/03/29 13:05:15;;;;;;;17.02;3.40;;;17.10;99.90;;;;;;5092051;28;20420;-85
2021/03/29 13:07:49;;;;;;;17.33;3.88;;;17.10;99.90;;;;;;5092240;28;20837;-86
2021/03/29 13:12:58;;;;;;;18.37;3.60;;;17.10;99.90;;;;;;5100148;28;20372;-85
2021/03/29 13:15:25;;;;;;;20.53;4.10;;;17.00;99.90;;;;;;5070940;28;20380;-84
2021/03/29 13:17:52;;;;;;;23.85;3.95;;;17.10;99.90;;;;;;5071615;28;20411;-85
2021/03/29 13:20:21;;;;;;;19.38;4.10;;;17.10;99.90;;;;;;5074006;28;20379;-84
2021/03/29 13:22:50;;;;;;;20.80;3.83;;;17.10;99.90;;;;;;5072015;28;20423;-85
2021/03/29 13:25:22;;;;;;;17.47;3.80;;;17.10;99.90;;;;;;5071779;28;20471;-85
2021/03/29 13:27:52;;;;;;;21.98;4.32;;;17.10;99.90;;;;;;5073032;28;20418;-85
2021/03/29 13:30:21;;;;;;;19.53;4.50;;;17.10;99.90;;;;;;5088287;28;20384;-85